FNHU

Nova Lisboa Airport

Huambo, Angola
METAR FNHU 181600Z 24009KT 9999 FEW013 BKN080 23/15 Q1018
Observed Flight Rules
Oct-18 @ 16:00 UTC (44 minutes ago) Visual Flight Rules
Wind Visibility Clouds
240° at 9 knots 10,000+ meters
  • Few at 1,300' AGL
  • Broken at 8,000' AGL
Temperatures Readings
Current 23°C / 73°F
Dewpoint 15°C / 59°F
Humidity 61%
Altimeter 30.06" Hg
Pressure 1018 hPa
Elevation 1701
METAR FNHU 181600Z 24009KT 9999 FEW013 BKN080 23/15 Q1018
Observed Flight Rules
Oct-18 @ 16:00 UTC
(44 minutes ago)
VFR
Wind Visibility
240° at 9 knots 10,000+ meters
Clouds
  • Few at 1,300' AGL
  • Broken at 8,000' AGL
Temperature Dewpoint
23°C / 73°F 15°C / 59°F
Humidity Altimeter Pressure
61% 30.06" Hg 1018 hPa